sensor_id;sensor_type;location;lat;lon;timestamp;pressure;altitude;pressure_sealevel;temperature;humidity
10688;BME280;5392;42.688;23.298;2023-04-23T00:00:40;57407.16;;;-144.48;100.00
10688;BME280;5392;42.688;23.298;2023-04-23T00:03:08;57403.00;;;-144.48;100.00
10688;BME280;5392;42.688;23.298;2023-04-23T00:05:36;57357.06;;;-144.48;100.00
10688;BME280;5392;42.688;23.298;2023-04-23T00:08:03;57438.47;;;-144.48;100.00
10688;BME280;5392;42.688;23.298;2023-04-23T00:10:31;57403.00;;;-144.48;100.00
10688;BME280;5392;42.688;23.298;2023-04-23T00:12:58;57380.03;;;-144.48;100.00
10688;BME280;5392;42.688;23.298;2023-04-23T00:15:25;57405.06;;;-144.48;100.00
10688;BME280;5392;42.688;23.298;2023-04-23T00:17:52;57409.25;;;-144.48;100.00
10688;BME280;5392;42.688;23.298;2023-04-23T00:20:19;57380.03;;;-144.48;100.00
10688;BME280;5392;42.688;23.298;2023-04-23T00:22:46;57413.44;;;-144.48;100.00
10688;BME280;5392;42.688;23.298;2023-04-23T00:25:13;57392.56;;;-144.48;100.00
10688;BME280;5392;42.688;23.298;2023-04-23T00:27:40;57425.94;;;-144.48;100.00
10688;BME280;5392;42.688;23.298;2023-04-23T00:30:07;57377.94;;;-144.48;100.00
10688;BME280;5392;42.688;23.298;2023-04-23T00:32:34;57455.16;;;-144.48;100.00
10688;BME280;5392;42.688;23.298;2023-04-23T00:35:01;57436.38;;;-144.48;100.00
10688;BME280;5392;42.688;23.298;2023-04-23T00:37:28;57373.75;;;-144.48;100.00
10688;BME280;5392;42.688;23.298;2023-04-23T00:39:55;57371.69;;;-144.48;100.00
10688;BME280;5392;42.688;23.298;2023-04-23T00:42:22;57425.94;;;-144.48;100.00
10688;BME280;5392;42.688;23.298;2023-04-23T00:44:49;57421.78;;;-144.48;100.00
10688;BME280;5392;42.688;23.298;2023-04-23T00:47:16;57455.16;;;-144.48;100.00
10688;BME280;5392;42.688;23.298;2023-04-23T00:49:44;57423.88;;;-144.48;100.00
10688;BME280;5392;42.688;23.298;2023-04-23T00:52:10;57430.13;;;-144.48;100.00
10688;BME280;5392;42.688;23.298;2023-04-23T00:54:37;57369.59;;;-144.48;100.00
10688;BME280;5392;42.688;23.298;2023-04-23T00:57:04;57390.47;;;-144.48;100.00
10688;BME280;5392;42.688;23.298;2023-04-23T00:59:33;57409.25;;;-144.48;100.00
10688;BME280;5392;42.688;23.298;2023-04-23T01:02:01;57438.47;;;-144.48;100.00
10688;BME280;5392;42.688;23.298;2023-04-23T01:04:30;57377.94;;;-144.48;100.00
10688;BME280;5392;42.688;23.298;2023-04-23T01:06:57;57386.28;;;-144.48;100.00
10688;BME280;5392;42.688;23.298;2023-04-23T01:09:25;57386.28;;;-144.48;100.00
10688;BME280;5392;42.688;23.298;2023-04-23T01:11:53;57388.38;;;-144.48;100.00
10688;BME280;5392;42.688;23.298;2023-04-23T01:14:20;57390.47;;;-144.48;100.00
10688;BME280;5392;42.688;23.298;2023-04-23T01:16:48;57380.03;;;-144.48;100.00
10688;BME280;5392;42.688;23.298;2023-04-23T01:19:15;57377.94;;;-144.48;100.00
10688;BME280;5392;42.688;23.298;2023-04-23T01:21:42;57428.03;;;-144.48;100.00
10688;BME280;5392;42.688;23.298;2023-04-23T01:24:09;57448.91;;;-144.48;100.00
10688;BME280;5392;42.688;23.298;2023-04-23T01:26:37;57400.91;;;-144.48;100.00
10688;BME280;5392;42.688;23.298;2023-04-23T01:29:05;57400.91;;;-144.48;100.00
10688;BME280;5392;42.688;23.298;2023-04-23T01:31:33;57405.06;;;-144.48;100.00
10688;BME280;5392;42.688;23.298;2023-04-23T01:34:00;57405.06;;;-144.48;100.00
10688;BME280;5392;42.688;23.298;2023-04-23T01:36:27;57419.69;;;-144.48;100.00
10688;BME280;5392;42.688;23.298;2023-04-23T01:38:54;57373.75;;;-144.48;100.00
10688;BME280;5392;42.688;23.298;2023-04-23T01:41:21;57396.72;;;-144.48;100.00
10688;BME280;5392;42.688;23.298;2023-04-23T01:43:47;57407.16;;;-144.48;100.00
10688;BME280;5392;42.688;23.298;2023-04-23T01:46:15;57407.16;;;-144.48;100.00
10688;BME280;5392;42.688;23.298;2023-04-23T01:48:41;57373.75;;;-144.48;100.00
10688;BME280;5392;42.688;23.298;2023-04-23T01:51:08;57371.69;;;-144.48;100.00
10688;BME280;5392;42.688;23.298;2023-04-23T01:53:35;57417.59;;;-144.48;100.00
10688;BME280;5392;42.688;23.298;2023-04-23T01:56:02;57375.84;;;-144.48;100.00
10688;BME280;5392;42.688;23.298;2023-04-23T01:58:30;57386.28;;;-144.48;100.00
10688;BME280;5392;42.688;23.298;2023-04-23T02:00:57;57394.63;;;-144.48;100.00
10688;BME280;5392;42.688;23.298;2023-04-23T02:03:24;57405.06;;;-144.48;100.00
10688;BME280;5392;42.688;23.298;2023-04-23T02:05:52;57411.34;;;-144.48;100.00
10688;BME280;5392;42.688;23.298;2023-04-23T02:08:20;57413.44;;;-144.48;100.00
10688;BME280;5392;42.688;23.298;2023-04-23T02:10:47;57425.94;;;-144.48;100.00
10688;BME280;5392;42.688;23.298;2023-04-23T02:13:14;57415.50;;;-144.48;100.00
10688;BME280;5392;42.688;23.298;2023-04-23T02:15:41;57413.44;;;-144.48;100.00
10688;BME280;5392;42.688;23.298;2023-04-23T02:18:08;57394.63;;;-144.48;100.00
10688;BME280;5392;42.688;23.298;2023-04-23T02:20:36;57407.16;;;-144.48;100.00
10688;BME280;5392;42.688;23.298;2023-04-23T02:23:09;57392.56;;;-144.48;100.00
10688;BME280;5392;42.688;23.298;2023-04-23T02:25:36;57430.13;;;-144.48;100.00
10688;BME280;5392;42.688;23.298;2023-04-23T02:28:06;57409.25;;;-144.48;100.00
10688;BME280;5392;42.688;23.298;2023-04-23T02:30:34;57394.63;;;-144.48;100.00
10688;BME280;5392;42.688;23.298;2023-04-23T02:33:01;57375.84;;;-144.48;100.00
10688;BME280;5392;42.688;23.298;2023-04-23T02:35:28;57371.69;;;-144.48;100.00
10688;BME280;5392;42.688;23.298;2023-04-23T02:38:13;57409.25;;;-144.48;100.00
10688;BME280;5392;42.688;23.298;2023-04-23T02:40:40;57423.88;;;-144.48;100.00
10688;BME280;5392;42.688;23.298;2023-04-23T02:43:07;57428.03;;;-144.48;100.00
10688;BME280;5392;42.688;23.298;2023-04-23T02:45:34;57400.91;;;-144.48;100.00
10688;BME280;5392;42.688;23.298;2023-04-23T02:48:01;57428.03;;;-144.48;100.00
10688;BME280;5392;42.688;23.298;2023-04-23T02:50:27;57421.78;;;-144.48;100.00
10688;BME280;5392;42.688;23.298;2023-04-23T02:52:54;57350.81;;;-144.48;100.00
10688;BME280;5392;42.688;23.298;2023-04-23T02:55:21;57367.50;;;-144.48;100.00
10688;BME280;5392;42.688;23.298;2023-04-23T02:57:50;57398.81;;;-144.48;100.00
10688;BME280;5392;42.688;23.298;2023-04-23T03:00:17;57390.47;;;-144.48;100.00
10688;BME280;5392;42.688;23.298;2023-04-23T03:02:44;57436.38;;;-144.48;100.00
10688;BME280;5392;42.688;23.298;2023-04-23T03:05:12;57390.47;;;-144.48;100.00
10688;BME280;5392;42.688;23.298;2023-04-23T03:07:38;57411.34;;;-144.48;100.00
10688;BME280;5392;42.688;23.298;2023-04-23T03:10:06;57396.72;;;-144.48;100.00
10688;BME280;5392;42.688;23.298;2023-04-23T03:12:33;57407.16;;;-144.48;100.00
10688;BME280;5392;42.688;23.298;2023-04-23T03:15:00;57357.06;;;-144.48;100.00
10688;BME280;5392;42.688;23.298;2023-04-23T03:17:27;57400.91;;;-144.48;100.00
10688;BME280;5392;42.688;23.298;2023-04-23T03:19:54;57459.34;;;-144.48;100.00
10688;BME280;5392;42.688;23.298;2023-04-23T03:22:21;57403.00;;;-144.48;100.00
10688;BME280;5392;42.688;23.298;2023-04-23T03:24:47;57430.13;;;-144.48;100.00
10688;BME280;5392;42.688;23.298;2023-04-23T03:27:14;57403.00;;;-144.48;100.00
10688;BME280;5392;42.688;23.298;2023-04-23T03:29:41;57405.06;;;-144.48;100.00
10688;BME280;5392;42.688;23.298;2023-04-23T03:32:07;57403.00;;;-144.48;100.00
10688;BME280;5392;42.688;23.298;2023-04-23T03:34:34;57398.81;;;-144.48;100.00
10688;BME280;5392;42.688;23.298;2023-04-23T03:37:01;57413.44;;;-144.48;100.00
10688;BME280;5392;42.688;23.298;2023-04-23T03:39:28;57417.59;;;-144.48;100.00
10688;BME280;5392;42.688;23.298;2023-04-23T03:41:54;57400.91;;;-144.48;100.00
10688;BME280;5392;42.688;23.298;2023-04-23T03:44:21;57373.75;;;-144.48;100.00
10688;BME280;5392;42.688;23.298;2023-04-23T03:46:47;57388.38;;;-144.48;100.00
10688;BME280;5392;42.688;23.298;2023-04-23T03:49:14;57442.66;;;-144.48;100.00
10688;BME280;5392;42.688;23.298;2023-04-23T03:51:42;57400.91;;;-144.48;100.00
10688;BME280;5392;42.688;23.298;2023-04-23T03:54:09;57382.13;;;-144.48;100.00
10688;BME280;5392;42.688;23.298;2023-04-23T03:56:36;57377.94;;;-144.48;100.00
10688;BME280;5392;42.688;23.298;2023-04-23T03:59:02;57415.50;;;-144.48;100.00
10688;BME280;5392;42.688;23.298;2023-04-23T04:01:29;57359.16;;;-144.48;100.00
10688;BME280;5392;42.688;23.298;2023-04-23T04:03:58;57407.16;;;-144.48;100.00
10688;BME280;5392;42.688;23.298;2023-04-23T04:06:25;57327.84;;;-144.48;100.00
10688;BME280;5392;42.688;23.298;2023-04-23T04:08:51;57425.94;;;-144.48;100.00
10688;BME280;5392;42.688;23.298;2023-04-23T04:11:18;57398.81;;;-144.48;100.00
10688;BME280;5392;42.688;23.298;2023-04-23T04:13:45;57415.50;;;-144.48;100.00
10688;BME280;5392;42.688;23.298;2023-04-23T04:16:11;57413.44;;;-144.48;100.00
10688;BME280;5392;42.688;23.298;2023-04-23T04:18:38;57407.16;;;-144.48;100.00
10688;BME280;5392;42.688;23.298;2023-04-23T04:21:05;57421.78;;;-144.48;89.82
10688;BME280;5392;42.688;23.298;2023-04-23T04:23:33;57396.72;;;-144.48;87.51
10688;BME280;5392;42.688;23.298;2023-04-23T04:26:00;57392.56;;;-144.48;85.68
10688;BME280;5392;42.688;23.298;2023-04-23T04:28:27;57394.63;;;-144.48;84.48
10688;BME280;5392;42.688;23.298;2023-04-23T04:30:54;57411.34;;;-144.48;82.79
10688;BME280;5392;42.688;23.298;2023-04-23T04:33:23;57392.56;;;-144.48;82.13
10688;BME280;5392;42.688;23.298;2023-04-23T04:35:51;57405.06;;;-144.48;82.37
10688;BME280;5392;42.688;23.298;2023-04-23T04:38:18;57386.28;;;-144.48;78.69
10688;BME280;5392;42.688;23.298;2023-04-23T04:40:45;57354.97;;;-144.48;77.80
10688;BME280;5392;42.688;23.298;2023-04-23T04:43:12;57363.31;;;-144.48;76.42
10688;BME280;5392;42.688;23.298;2023-04-23T04:45:39;57394.63;;;-144.48;72.18
10688;BME280;5392;42.688;23.298;2023-04-23T04:48:05;57403.00;;;-144.48;71.21
10688;BME280;5392;42.688;23.298;2023-04-23T04:50:32;57384.19;;;-144.48;69.75
10688;BME280;5392;42.688;23.298;2023-04-23T04:52:59;57432.22;;;-144.48;66.18
10688;BME280;5392;42.688;23.298;2023-04-23T04:55:26;57369.59;;;-144.48;68.67
10688;BME280;5392;42.688;23.298;2023-04-23T04:57:52;57384.19;;;-144.48;69.13
10688;BME280;5392;42.688;23.298;2023-04-23T05:02:49;57375.84;;;-144.48;65.07
10688;BME280;5392;42.688;23.298;2023-04-23T05:05:17;57371.69;;;-144.48;63.84
10688;BME280;5392;42.688;23.298;2023-04-23T05:07:44;57390.47;;;-144.48;62.26
10688;BME280;5392;42.688;23.298;2023-04-23T05:10:11;57340.38;;;-144.48;61.79
10688;BME280;5392;42.688;23.298;2023-04-23T05:12:38;57373.75;;;-144.48;63.12
10688;BME280;5392;42.688;23.298;2023-04-23T05:15:09;57373.75;;;-144.48;60.92
10688;BME280;5392;42.688;23.298;2023-04-23T05:17:39;57363.31;;;-144.48;59.90
10688;BME280;5392;42.688;23.298;2023-04-23T05:20:07;57365.41;;;-144.48;61.65
10688;BME280;5392;42.688;23.298;2023-04-23T05:22:37;57388.38;;;-144.48;61.30
10688;BME280;5392;42.688;23.298;2023-04-23T05:25:04;57350.81;;;-144.48;61.88
10688;BME280;5392;42.688;23.298;2023-04-23T05:27:31;57380.03;;;-144.48;60.14
10688;BME280;5392;42.688;23.298;2023-04-23T05:29:58;57386.28;;;-144.48;58.93
10688;BME280;5392;42.688;23.298;2023-04-23T05:32:25;57398.81;;;-144.48;61.16
10688;BME280;5392;42.688;23.298;2023-04-23T05:34:51;57394.63;;;-144.48;63.01
10688;BME280;5392;42.688;23.298;2023-04-23T05:37:18;57350.81;;;-144.48;62.16
10688;BME280;5392;42.688;23.298;2023-04-23T05:39:45;57371.69;;;-144.48;60.66
10688;BME280;5392;42.688;23.298;2023-04-23T05:42:12;57327.84;;;-144.48;59.85
10688;BME280;5392;42.688;23.298;2023-04-23T05:44:38;57346.63;;;-144.48;60.92
10688;BME280;5392;42.688;23.298;2023-04-23T05:47:09;57338.28;;;-144.48;60.30
10688;BME280;5392;42.688;23.298;2023-04-23T05:49:36;57382.13;;;-144.48;60.05
10688;BME280;5392;42.688;23.298;2023-04-23T05:52:03;57375.84;;;-144.48;58.80
10688;BME280;5392;42.688;23.298;2023-04-23T05:54:29;57375.84;;;-144.48;57.23
10688;BME280;5392;42.688;23.298;2023-04-23T05:56:56;57371.69;;;-144.48;58.02
10688;BME280;5392;42.688;23.298;2023-04-23T05:59:23;57390.47;;;-144.48;58.27
10688;BME280;5392;42.688;23.298;2023-04-23T06:01:50;57348.72;;;-144.48;57.38
10688;BME280;5392;42.688;23.298;2023-04-23T06:04:17;57340.38;;;-144.48;56.58
10688;BME280;5392;42.688;23.298;2023-04-23T06:06:44;57382.13;;;-144.48;57.81
10688;BME280;5392;42.688;23.298;2023-04-23T06:09:11;57373.75;;;-144.48;57.76
10688;BME280;5392;42.688;23.298;2023-04-23T06:11:38;57344.53;;;-144.48;58.84
10688;BME280;5392;42.688;23.298;2023-04-23T06:14:04;57359.16;;;-144.48;58.04
10688;BME280;5392;42.688;23.298;2023-04-23T06:16:31;57363.31;;;-144.48;57.08
10688;BME280;5392;42.688;23.298;2023-04-23T06:18:58;57327.84;;;-144.48;57.92
10688;BME280;5392;42.688;23.298;2023-04-23T06:21:25;57363.31;;;-144.48;58.66
10688;BME280;5392;42.688;23.298;2023-04-23T06:23:52;57348.72;;;-144.48;57.64
10688;BME280;5392;42.688;23.298;2023-04-23T06:26:20;57384.19;;;-144.48;59.55
10688;BME280;5392;42.688;23.298;2023-04-23T06:28:46;57334.09;;;-144.48;62.87
10688;BME280;5392;42.688;23.298;2023-04-23T06:31:13;57340.38;;;-144.48;61.34
10688;BME280;5392;42.688;23.298;2023-04-23T06:33:40;57398.81;;;-144.48;59.90
10688;BME280;5392;42.688;23.298;2023-04-23T06:36:07;57363.31;;;-144.48;58.40
10688;BME280;5392;42.688;23.298;2023-04-23T06:38:36;57365.41;;;-144.48;56.76
10688;BME280;5392;42.688;23.298;2023-04-23T06:41:04;57352.91;;;-144.48;54.33
10688;BME280;5392;42.688;23.298;2023-04-23T06:43:31;57340.38;;;-144.48;54.84
10688;BME280;5392;42.688;23.298;2023-04-23T06:45:58;57348.72;;;-144.48;56.10
10688;BME280;5392;42.688;23.298;2023-04-23T06:48:24;57361.25;;;-144.48;55.49
10688;BME280;5392;42.688;23.298;2023-04-23T06:50:52;57352.91;;;-144.48;56.71
10688;BME280;5392;42.688;23.298;2023-04-23T06:53:18;57361.25;;;-144.48;57.56
10688;BME280;5392;42.688;23.298;2023-04-23T06:55:45;57388.38;;;-144.48;59.69
10688;BME280;5392;42.688;23.298;2023-04-23T06:58:12;57359.16;;;-144.48;58.87
10688;BME280;5392;42.688;23.298;2023-04-23T07:00:40;57338.28;;;-144.48;56.57
10688;BME280;5392;42.688;23.298;2023-04-23T07:03:07;57336.19;;;-144.48;56.78
10688;BME280;5392;42.688;23.298;2023-04-23T07:05:34;57315.31;;;-144.48;57.72
10688;BME280;5392;42.688;23.298;2023-04-23T07:08:01;57344.53;;;-144.48;56.40
10688;BME280;5392;42.688;23.298;2023-04-23T07:10:28;57354.97;;;-144.48;54.90
10688;BME280;5392;42.688;23.298;2023-04-23T07:12:54;57346.63;;;-144.48;55.55
10688;BME280;5392;42.688;23.298;2023-04-23T07:15:21;57354.97;;;-144.48;58.61
10688;BME280;5392;42.688;23.298;2023-04-23T07:17:48;57342.47;;;-144.48;58.00
10688;BME280;5392;42.688;23.298;2023-04-23T07:20:15;57344.53;;;-144.48;56.70
10688;BME280;5392;42.688;23.298;2023-04-23T07:22:41;57334.09;;;-144.48;56.38
10688;BME280;5392;42.688;23.298;2023-04-23T07:25:08;57348.72;;;-144.48;56.54
10688;BME280;5392;42.688;23.298;2023-04-23T07:27:35;57357.06;;;-144.48;57.98
10688;BME280;5392;42.688;23.298;2023-04-23T07:30:03;57352.91;;;-144.48;57.20
10688;BME280;5392;42.688;23.298;2023-04-23T07:32:30;57367.50;;;-144.48;56.32
10688;BME280;5392;42.688;23.298;2023-04-23T07:34:57;57380.03;;;-144.48;58.29
10688;BME280;5392;42.688;23.298;2023-04-23T07:37:23;57352.91;;;-144.48;58.99
10688;BME280;5392;42.688;23.298;2023-04-23T07:39:50;57350.81;;;-144.48;57.14
10688;BME280;5392;42.688;23.298;2023-04-23T07:42:18;57340.38;;;-144.48;57.14
10688;BME280;5392;42.688;23.298;2023-04-23T07:44:45;57346.63;;;-144.48;58.56
10688;BME280;5392;42.688;23.298;2023-04-23T07:47:12;57352.91;;;-144.48;56.30
10688;BME280;5392;42.688;23.298;2023-04-23T07:49:39;57332.03;;;-144.48;56.76
10688;BME280;5392;42.688;23.298;2023-04-23T07:52:06;57340.38;;;-144.48;58.74
10688;BME280;5392;42.688;23.298;2023-04-23T07:54:33;57375.84;;;-144.48;59.62
10688;BME280;5392;42.688;23.298;2023-04-23T07:57:00;57365.41;;;-144.48;60.15
10688;BME280;5392;42.688;23.298;2023-04-23T07:59:28;57354.97;;;-144.48;57.79
10688;BME280;5392;42.688;23.298;2023-04-23T08:01:55;57413.44;;;-144.48;57.86
10688;BME280;5392;42.688;23.298;2023-04-23T08:04:21;57327.84;;;-144.48;58.72
10688;BME280;5392;42.688;23.298;2023-04-23T08:06:49;57327.84;;;-144.48;58.37
10688;BME280;5392;42.688;23.298;2023-04-23T08:09:15;57361.25;;;-144.48;58.53
10688;BME280;5392;42.688;23.298;2023-04-23T08:11:43;57371.69;;;-144.48;61.47
10688;BME280;5392;42.688;23.298;2023-04-23T08:14:10;57396.72;;;-144.48;63.20
10688;BME280;5392;42.688;23.298;2023-04-23T08:16:36;57411.34;;;-144.48;61.39
10688;BME280;5392;42.688;23.298;2023-04-23T08:19:04;57382.13;;;-144.48;61.40
10688;BME280;5392;42.688;23.298;2023-04-23T08:21:32;57369.59;;;-144.48;60.74
10688;BME280;5392;42.688;23.298;2023-04-23T08:23:59;57388.38;;;-144.48;61.07
10688;BME280;5392;42.688;23.298;2023-04-23T08:26:26;57332.03;;;-144.48;61.88
10688;BME280;5392;42.688;23.298;2023-04-23T08:28:52;57421.78;;;-144.48;60.92
10688;BME280;5392;42.688;23.298;2023-04-23T08:31:19;57417.59;;;-144.48;62.16
10688;BME280;5392;42.688;23.298;2023-04-23T08:33:52;57396.72;;;-144.48;63.90
10688;BME280;5392;42.688;23.298;2023-04-23T08:36:19;57407.16;;;-144.48;62.46
10688;BME280;5392;42.688;23.298;2023-04-23T08:38:46;57386.28;;;-144.48;61.04
10688;BME280;5392;42.688;23.298;2023-04-23T08:41:13;57346.63;;;-144.48;60.63
10688;BME280;5392;42.688;23.298;2023-04-23T08:43:46;57396.72;;;-144.48;60.54
10688;BME280;5392;42.688;23.298;2023-04-23T08:46:14;57377.94;;;-144.48;61.49
10688;BME280;5392;42.688;23.298;2023-04-23T08:48:43;57392.56;;;-144.48;62.51
10688;BME280;5392;42.688;23.298;2023-04-23T08:51:12;57388.38;;;-144.48;62.28
10688;BME280;5392;42.688;23.298;2023-04-23T08:53:44;57415.50;;;-144.48;63.11
10688;BME280;5392;42.688;23.298;2023-04-23T08:56:15;57405.06;;;-144.48;65.01
10688;BME280;5392;42.688;23.298;2023-04-23T08:58:42;57357.06;;;-144.48;66.42
10688;BME280;5392;42.688;23.298;2023-04-23T09:01:11;57428.03;;;-144.48;66.71
10688;BME280;5392;42.688;23.298;2023-04-23T09:03:38;57423.88;;;-144.48;66.37
10688;BME280;5392;42.688;23.298;2023-04-23T09:06:06;57392.56;;;-144.48;65.21
10688;BME280;5392;42.688;23.298;2023-04-23T09:08:33;57411.34;;;-144.48;65.64
10688;BME280;5392;42.688;23.298;2023-04-23T09:11:00;57405.06;;;-144.48;67.33
10688;BME280;5392;42.688;23.298;2023-04-23T09:13:29;57375.84;;;-144.48;69.64
10688;BME280;5392;42.688;23.298;2023-04-23T09:15:59;57354.97;;;-144.48;70.46
10688;BME280;5392;42.688;23.298;2023-04-23T09:18:26;57373.75;;;-144.48;69.46
10688;BME280;5392;42.688;23.298;2023-04-23T09:20:52;57407.16;;;-144.48;67.74
10688;BME280;5392;42.688;23.298;2023-04-23T09:23:21;57411.34;;;-144.48;67.77
10688;BME280;5392;42.688;23.298;2023-04-23T09:25:48;57384.19;;;-144.48;64.73
10688;BME280;5392;42.688;23.298;2023-04-23T09:28:15;57346.63;;;-144.48;63.43
10688;BME280;5392;42.688;23.298;2023-04-23T09:30:43;57432.22;;;-144.48;63.12
10688;BME280;5392;42.688;23.298;2023-04-23T09:33:11;57403.00;;;-144.48;64.20
10688;BME280;5392;42.688;23.298;2023-04-23T09:35:38;57400.91;;;-144.48;64.62
10688;BME280;5392;42.688;23.298;2023-04-23T09:38:08;57398.81;;;-144.48;64.83
10688;BME280;5392;42.688;23.298;2023-04-23T09:40:36;57407.16;;;-144.48;64.86
10688;BME280;5392;42.688;23.298;2023-04-23T09:43:04;57428.03;;;-144.48;62.95
10688;BME280;5392;42.688;23.298;2023-04-23T09:45:31;57407.16;;;-144.48;62.24
10688;BME280;5392;42.688;23.298;2023-04-23T09:47:58;57396.72;;;-144.48;61.92
10688;BME280;5392;42.688;23.298;2023-04-23T09:52:57;57421.78;;;-144.48;61.98
10688;BME280;5392;42.688;23.298;2023-04-23T09:55:28;57375.84;;;-144.48;62.27
10688;BME280;5392;42.688;23.298;2023-04-23T09:57:56;57407.16;;;-144.48;62.12
10688;BME280;5392;42.688;23.298;2023-04-23T10:00:23;57367.50;;;-144.48;61.75
10688;BME280;5392;42.688;23.298;2023-04-23T10:02:51;57409.25;;;-144.48;62.36
10688;BME280;5392;42.688;23.298;2023-04-23T10:05:20;57419.69;;;-144.48;61.32
10688;BME280;5392;42.688;23.298;2023-04-23T10:07:54;57386.28;;;-144.48;60.18
10688;BME280;5392;42.688;23.298;2023-04-23T10:10:22;57371.69;;;-144.48;59.06
10688;BME280;5392;42.688;23.298;2023-04-23T10:12:51;57352.91;;;-144.48;58.76
10688;BME280;5392;42.688;23.298;2023-04-23T10:15:22;57371.69;;;-144.48;59.58
10688;BME280;5392;42.688;23.298;2023-04-23T10:17:50;57384.19;;;-144.48;60.17
10688;BME280;5392;42.688;23.298;2023-04-23T10:20:19;57377.94;;;-144.48;59.51
10688;BME280;5392;42.688;23.298;2023-04-23T10:22:48;57369.59;;;-144.48;58.40
10688;BME280;5392;42.688;23.298;2023-04-23T10:25:15;57396.72;;;-144.48;58.55
10688;BME280;5392;42.688;23.298;2023-04-23T10:27:43;57390.47;;;-144.48;59.87
10688;BME280;5392;42.688;23.298;2023-04-23T10:30:20;57384.19;;;-144.48;59.11
10688;BME280;5392;42.688;23.298;2023-04-23T10:32:48;57371.69;;;-144.48;58.05
10688;BME280;5392;42.688;23.298;2023-04-23T10:35:15;57396.72;;;-144.48;58.16
10688;BME280;5392;42.688;23.298;2023-04-23T10:37:43;57373.75;;;-144.48;58.51
10688;BME280;5392;42.688;23.298;2023-04-23T10:40:13;57317.41;;;-144.48;58.33
10688;BME280;5392;42.688;23.298;2023-04-23T10:42:42;57396.72;;;-144.48;59.01
10688;BME280;5392;42.688;23.298;2023-04-23T10:45:16;57384.19;;;-144.48;58.94
10688;BME280;5392;42.688;23.298;2023-04-23T10:47:46;57392.56;;;-144.48;59.70
10688;BME280;5392;42.688;23.298;2023-04-23T10:50:24;57432.22;;;-144.48;60.15
10688;BME280;5392;42.688;23.298;2023-04-23T10:52:52;57413.44;;;-144.48;59.13
10688;BME280;5392;42.688;23.298;2023-04-23T10:55:22;57361.25;;;-144.48;58.28
10688;BME280;5392;42.688;23.298;2023-04-23T11:00:29;57396.72;;;-144.48;57.17
10688;BME280;5392;42.688;23.298;2023-04-23T11:02:56;57369.59;;;-144.48;57.09
10688;BME280;5392;42.688;23.298;2023-04-23T11:05:23;57438.47;;;-144.48;57.74
10688;BME280;5392;42.688;23.298;2023-04-23T11:08:05;57392.56;;;-144.48;57.75
10688;BME280;5392;42.688;23.298;2023-04-23T11:10:56;57359.16;;;-144.48;57.13
10688;BME280;5392;42.688;23.298;2023-04-23T11:13:25;57413.44;;;-144.48;57.26
10688;BME280;5392;42.688;23.298;2023-04-23T11:16:11;57357.06;;;-144.48;58.49
10688;BME280;5392;42.688;23.298;2023-04-23T11:19:07;57392.56;;;-144.48;58.23
10688;BME280;5392;42.688;23.298;2023-04-23T11:21:56;57373.75;;;-144.48;57.21
10688;BME280;5392;42.688;23.298;2023-04-23T11:26:55;57354.97;;;-144.48;56.88
10688;BME280;5392;42.688;23.298;2023-04-23T11:29:24;57380.03;;;-144.48;57.09
10688;BME280;5392;42.688;23.298;2023-04-23T11:31:52;57388.38;;;-144.48;56.91
10688;BME280;5392;42.688;23.298;2023-04-23T11:34:28;57392.56;;;-144.48;56.34
10688;BME280;5392;42.688;23.298;2023-04-23T11:36:57;57365.41;;;-144.48;56.75
10688;BME280;5392;42.688;23.298;2023-04-23T11:39:24;57346.63;;;-144.48;57.13
10688;BME280;5392;42.688;23.298;2023-04-23T11:41:52;57365.41;;;-144.48;56.96
10688;BME280;5392;42.688;23.298;2023-04-23T11:44:20;57403.00;;;-144.48;56.73
10688;BME280;5392;42.688;23.298;2023-04-23T11:46:48;57384.19;;;-144.48;56.31
10688;BME280;5392;42.688;23.298;2023-04-23T11:49:18;57392.56;;;-144.48;55.64
10688;BME280;5392;42.688;23.298;2023-04-23T11:51:45;57359.16;;;-144.48;54.71
10688;BME280;5392;42.688;23.298;2023-04-23T11:54:12;57392.56;;;-144.48;54.01
10688;BME280;5392;42.688;23.298;2023-04-23T11:56:40;57371.69;;;-144.48;54.72
10688;BME280;5392;42.688;23.298;2023-04-23T11:59:07;57371.69;;;-144.48;54.92
10688;BME280;5392;42.688;23.298;2023-04-23T12:01:47;57386.28;;;-144.48;54.94
10688;BME280;5392;42.688;23.298;2023-04-23T12:04:17;57390.47;;;-144.48;54.95
10688;BME280;5392;42.688;23.298;2023-04-23T12:06:45;57342.47;;;-144.48;54.88
10688;BME280;5392;42.688;23.298;2023-04-23T12:09:14;57344.53;;;-144.48;55.11
10688;BME280;5392;42.688;23.298;2023-04-23T12:11:42;57375.84;;;-144.48;55.16
10688;BME280;5392;42.688;23.298;2023-04-23T12:14:10;57363.31;;;-144.48;54.15
10688;BME280;5392;42.688;23.298;2023-04-23T12:16:45;57367.50;;;-144.48;54.52
10688;BME280;5392;42.688;23.298;2023-04-23T12:19:20;57423.88;;;-144.48;54.40
10688;BME280;5392;42.688;23.298;2023-04-23T12:21:55;57415.50;;;-144.48;54.44
10688;BME280;5392;42.688;23.298;2023-04-23T12:24:27;57396.72;;;-144.48;53.91
10688;BME280;5392;42.688;23.298;2023-04-23T12:26:58;57386.28;;;-144.48;54.04
10688;BME280;5392;42.688;23.298;2023-04-23T12:29:28;57428.03;;;-144.48;55.39
10688;BME280;5392;42.688;23.298;2023-04-23T12:31:57;57375.84;;;-144.48;56.62
10688;BME280;5392;42.688;23.298;2023-04-23T12:34:24;57377.94;;;-144.48;56.47
10688;BME280;5392;42.688;23.298;2023-04-23T12:36:53;57411.34;;;-144.48;56.31
10688;BME280;5392;42.688;23.298;2023-04-23T12:39:32;57394.63;;;-144.48;55.84
10688;BME280;5392;42.688;23.298;2023-04-23T12:42:02;57363.31;;;-144.48;56.02
10688;BME280;5392;42.688;23.298;2023-04-23T12:44:32;57367.50;;;-144.48;55.54
10688;BME280;5392;42.688;23.298;2023-04-23T12:47:01;57382.13;;;-144.48;54.73
10688;BME280;5392;42.688;23.298;2023-04-23T12:49:30;57369.59;;;-144.48;54.96